Terminal Aerodrome Forecast
Issued by NWS Cleveland, OH

Home | Current Version | Previous Version | Graphics & Text | Print | Product List | Glossary On
Versions: 1 2 3 4 5 6 7 8 9 10 11 12 13 14 15 16 17 18
000
FTUS41 KCLE 211723
TAFYNG
TAF
KYNG 211723Z 2118/2218 29006KT P6SM FEW035 SCT080
     FM212200 32006KT P6SM SCT220
     FM221100 14004KT P6SM VCSH SCT060 BKN100
     FM221700 21007KT P6SM BKN100=

USA.gov is the U.S. government's official web portal to all federal, state and local government web resources and services.